Time;durP1;ratioP1;P1;durP2;ratioP2;P2;SDS_P1;SDS_P2;PMS_P1;PMS_P2;Temp;Humidity;BMP_temperature;BMP_pressure;BME280_temperature;BME280_humidity;BME280_pressure;Samples;Min_cycle;Max_cycle;Signal;HPM_P1;HPM_P2
2023/09/29 00:00:54;;;;;;;24.52;8.25;;;11.70;99.90;;;;;;5069793;28;20603;-78
2023/09/29 00:03:20;;;;;;;25.23;7.68;;;11.70;99.90;;;;;;5069777;28;20060;-78
2023/09/29 00:05:46;;;;;;;17.73;7.70;;;11.70;99.90;;;;;;5068930;28;20465;-78
2023/09/29 00:08:17;;;;;;;25.05;7.68;;;11.70;99.90;;;;;;5070042;28;20100;-78
2023/09/29 00:10:45;;;;;;;20.48;7.53;;;11.80;99.90;;;;;;5068663;28;20608;-78
2023/09/29 00:13:11;;;;;;;26.08;8.65;;;11.70;99.90;;;;;;5069383;28;20509;-76
2023/09/29 00:15:38;;;;;;;22.20;7.18;;;11.70;99.90;;;;;;5068600;28;20475;-77
2023/09/29 00:18:05;;;;;;;19.08;7.03;;;11.70;99.90;;;;;;5069418;28;20036;-77
2023/09/29 00:20:31;;;;;;;22.05;7.78;;;11.70;99.90;;;;;;5069141;28;20378;-77
2023/09/29 00:22:59;;;;;;;26.08;7.35;;;11.80;99.90;;;;;;5069296;28;20103;-77
2023/09/29 00:25:25;;;;;;;20.55;7.28;;;11.70;99.90;;;;;;5069495;28;20050;-77
2023/09/29 00:27:51;;;;;;;21.98;7.38;;;11.80;99.90;;;;;;5069957;28;20135;-77
2023/09/29 00:30:18;;;;;;;22.10;7.68;;;11.70;99.90;;;;;;5070172;28;20032;-77
2023/09/29 00:32:48;;;;;;;22.05;7.13;;;11.70;99.90;;;;;;5069526;28;20263;-78
2023/09/29 00:35:33;;;;;;;19.75;7.72;;;11.70;99.90;;;;;;5070232;28;20052;-77
2023/09/29 00:38:00;;;;;;;23.67;7.07;;;11.70;99.90;;;;;;5070296;28;20296;-78
2023/09/29 00:40:27;;;;;;;28.77;7.75;;;11.70;99.90;;;;;;5069220;28;20025;-78
2023/09/29 00:42:53;;;;;;;23.35;8.02;;;11.70;99.90;;;;;;5069656;28;20428;-78
2023/09/29 00:45:22;;;;;;;24.95;7.32;;;11.60;99.90;;;;;;5073005;28;20024;-78
2023/09/29 00:47:50;;;;;;;20.20;7.68;;;11.60;99.90;;;;;;5072383;28;20049;-78
2023/09/29 00:50:19;;;;;;;22.90;7.60;;;11.60;99.90;;;;;;5073415;28;20029;-78
2023/09/29 00:52:46;;;;;;;22.30;7.60;;;11.60;99.90;;;;;;5055082;28;20587;-78
2023/09/29 00:55:15;;;;;;;24.58;7.13;;;11.50;99.90;;;;;;5073367;28;20094;-78
2023/09/29 00:57:42;;;;;;;21.98;6.88;;;11.50;99.90;;;;;;5072351;28;20029;-78
2023/09/29 01:00:14;;;;;;;22.38;6.97;;;11.50;99.90;;;;;;5073364;28;20391;-78
2023/09/29 01:02:43;;;;;;;26.08;7.55;;;11.50;99.90;;;;;;5072402;28;20462;-78
2023/09/29 01:05:11;;;;;;;23.58;6.95;;;11.50;99.90;;;;;;5073220;28;20032;-78
2023/09/29 01:07:37;;;;;;;26.27;6.65;;;11.50;99.90;;;;;;5072727;28;20028;-78
2023/09/29 01:10:04;;;;;;;27.27;6.72;;;11.60;99.90;;;;;;5073012;28;20150;-78
2023/09/29 01:12:30;;;;;;;20.02;6.32;;;11.60;99.90;;;;;;5072213;28;20037;-78
2023/09/29 01:14:57;;;;;;;20.45;6.05;;;11.60;99.90;;;;;;5073126;28;20098;-78
2023/09/29 01:17:25;;;;;;;24.85;7.13;;;11.50;99.90;;;;;;5073006;28;20071;-78
2023/09/29 01:19:51;;;;;;;22.42;6.68;;;11.50;99.90;;;;;;5037864;28;20029;-78
2023/09/29 01:22:18;;;;;;;21.10;5.93;;;11.50;99.90;;;;;;5072830;28;20024;-78
2023/09/29 01:24:45;;;;;;;22.98;6.30;;;11.50;99.90;;;;;;5072153;28;20024;-78
2023/09/29 01:27:11;;;;;;;27.23;6.88;;;11.50;99.90;;;;;;5072728;28;20086;-78
2023/09/29 01:29:41;;;;;;;23.30;6.38;;;11.50;99.90;;;;;;5072219;28;20368;-78
2023/09/29 01:32:12;;;;;;;21.75;6.57;;;11.50;99.90;;;;;;5072823;28;20041;-79
2023/09/29 01:34:37;;;;;;;21.13;5.95;;;11.50;99.90;;;;;;5072037;28;20029;-78
2023/09/29 01:37:04;;;;;;;26.20;6.32;;;11.50;99.90;;;;;;5072317;28;20024;-79
2023/09/29 01:39:31;;;;;;;16.23;5.40;;;11.40;99.90;;;;;;5072080;28;20028;-79
2023/09/29 01:41:56;;;;;;;29.08;6.57;;;11.50;99.90;;;;;;5072115;28;20086;-78
2023/09/29 01:44:22;;;;;;;18.42;5.90;;;11.50;99.90;;;;;;5072210;28;20416;-78
2023/09/29 01:46:49;;;;;;;20.20;5.63;;;11.50;99.90;;;;;;5071414;28;20054;-78
2023/09/29 01:49:15;;;;;;;24.70;6.10;;;11.40;99.90;;;;;;5071917;28;20025;-78
2023/09/29 01:51:44;;;;;;;21.17;5.93;;;11.40;99.90;;;;;;5071763;28;20035;-77
2023/09/29 01:54:10;;;;;;;24.17;5.68;;;11.50;99.90;;;;;;5072064;28;20112;-78
2023/09/29 01:56:36;;;;;;;17.88;5.07;;;11.40;99.90;;;;;;5071269;28;20029;-78
2023/09/29 01:59:02;;;;;;;20.35;5.28;;;11.50;99.90;;;;;;5072390;28;20416;-78
2023/09/29 02:01:29;;;;;;;18.98;5.10;;;11.50;99.90;;;;;;5071856;28;20122;-78
2023/09/29 02:03:55;;;;;;;19.27;5.15;;;11.40;99.90;;;;;;5071741;28;20175;-77
2023/09/29 02:06:21;;;;;;;19.08;4.82;;;11.40;99.90;;;;;;5053914;28;20131;-78
2023/09/29 02:08:47;;;;;;;15.52;4.50;;;11.50;99.90;;;;;;5071335;28;20021;-78
2023/09/29 02:11:12;;;;;;;20.55;5.07;;;11.50;99.90;;;;;;5072090;28;20024;-78
2023/09/29 02:13:38;;;;;;;23.75;4.90;;;11.50;99.90;;;;;;5071356;28;20025;-78
2023/09/29 02:16:15;;;;;;;16.33;4.82;;;11.50;99.90;;;;;;5071927;28;20117;-77
2023/09/29 02:18:41;;;;;;;23.55;5.68;;;11.50;99.90;;;;;;5070719;28;20339;-78
2023/09/29 02:21:07;;;;;;;20.48;4.80;;;11.40;99.90;;;;;;5071717;28;20037;-78
2023/09/29 02:23:33;;;;;;;20.55;4.82;;;11.50;99.90;;;;;;5070961;28;20036;-79
2023/09/29 02:26:02;;;;;;;19.25;4.63;;;11.50;99.90;;;;;;5071869;28;20024;-78
2023/09/29 02:28:31;;;;;;;17.65;4.63;;;11.50;99.90;;;;;;5071283;28;20455;-79
2023/09/29 02:31:03;;;;;;;26.25;5.65;;;11.40;99.90;;;;;;5071364;28;20340;-78
2023/09/29 02:33:30;;;;;;;19.83;4.45;;;11.50;99.90;;;;;;5071722;28;20033;-78
2023/09/29 02:35:56;;;;;;;21.77;5.03;;;11.40;99.90;;;;;;5071305;28;20031;-78
2023/09/29 02:38:23;;;;;;;21.05;4.90;;;11.40;99.90;;;;;;5071188;28;20478;-77
2023/09/29 02:40:50;;;;;;;22.23;4.65;;;11.40;99.90;;;;;;5071086;28;20020;-78
2023/09/29 02:43:16;;;;;;;22.45;5.25;;;11.50;99.90;;;;;;5053390;28;20029;-78
2023/09/29 02:45:42;;;;;;;20.83;4.60;;;11.50;99.90;;;;;;5070983;28;20099;-78
2023/09/29 02:48:07;;;;;;;24.52;5.95;;;11.50;99.90;;;;;;5070973;28;20106;-78
2023/09/29 02:50:36;;;;;;;21.25;4.68;;;11.50;99.90;;;;;;5070875;28;20031;-78
2023/09/29 02:53:07;;;;;;;23.42;4.60;;;11.50;99.90;;;;;;5071518;28;20489;-77
2023/09/29 02:55:33;;;;;;;20.00;4.78;;;11.40;99.90;;;;;;5071120;28;20077;-78
2023/09/29 02:57:59;;;;;;;17.17;3.67;;;11.40;99.90;;;;;;5071514;28;20036;-77
2023/09/29 03:00:27;;;;;;;13.38;3.95;;;11.40;99.90;;;;;;5071162;28;20056;-77
2023/09/29 03:02:52;;;;;;;19.65;4.30;;;11.40;99.90;;;;;;5070673;28;20028;-77
2023/09/29 03:05:22;;;;;;;20.10;4.82;;;11.40;99.90;;;;;;5053032;28;20024;-77
2023/09/29 03:07:49;;;;;;;17.35;3.85;;;11.40;99.90;;;;;;5070062;28;20044;-77
2023/09/29 03:10:16;;;;;;;19.50;5.00;;;11.40;99.90;;;;;;5071282;28;20043;-78
2023/09/29 03:12:43;;;;;;;15.52;3.75;;;11.40;99.90;;;;;;5070173;28;20460;-78
2023/09/29 03:15:11;;;;;;;18.10;4.43;;;11.40;99.90;;;;;;5071092;28;20032;-78
2023/09/29 03:17:37;;;;;;;20.55;4.55;;;11.30;99.90;;;;;;5052737;28;20074;-78
2023/09/29 03:20:10;;;;;;;16.50;3.88;;;11.40;99.90;;;;;;5052712;28;20032;-77
2023/09/29 03:22:37;;;;;;;17.13;3.75;;;11.30;99.90;;;;;;5070793;28;20332;-78
2023/09/29 03:25:04;;;;;;;19.65;4.22;;;11.30;99.90;;;;;;5070726;28;20078;-78
2023/09/29 03:27:30;;;;;;;16.77;4.25;;;11.30;99.90;;;;;;5071213;28;20395;-78
2023/09/29 03:29:55;;;;;;;19.67;4.18;;;11.30;99.90;;;;;;5070487;28;20048;-77
2023/09/29 03:32:21;;;;;;;13.57;3.67;;;11.30;99.90;;;;;;5070833;28;20032;-77
2023/09/29 03:34:48;;;;;;;19.05;4.05;;;11.30;99.90;;;;;;5069540;28;20035;-77
2023/09/29 03:37:14;;;;;;;17.67;3.80;;;11.30;99.90;;;;;;5070586;28;20055;-78
2023/09/29 03:39:40;;;;;;;23.77;4.55;;;11.30;99.90;;;;;;5069688;28;20411;-78
2023/09/29 03:42:05;;;;;;;20.63;3.78;;;11.30;99.90;;;;;;5070403;28;20040;-77
2023/09/29 03:44:32;;;;;;;20.95;4.30;;;11.30;99.90;;;;;;5070159;28;20033;-77
2023/09/29 03:46:58;;;;;;;25.27;3.95;;;11.40;99.90;;;;;;5069538;28;20048;-77
2023/09/29 03:49:24;;;;;;;23.55;3.88;;;11.50;99.90;;;;;;5070337;28;20024;-77
2023/09/29 03:51:51;;;;;;;19.73;4.22;;;11.50;99.90;;;;;;5069744;28;20056;-77
2023/09/29 03:54:18;;;;;;;15.73;4.00;;;11.50;99.90;;;;;;5070219;28;20103;-77
2023/09/29 03:56:44;;;;;;;23.88;4.18;;;11.50;99.90;;;;;;5069794;28;20174;-77
2023/09/29 03:59:10;;;;;;;20.05;3.63;;;11.50;99.90;;;;;;5070461;28;20387;-76
2023/09/29 04:01:36;;;;;;;18.08;3.35;;;11.50;99.90;;;;;;5070209;28;20034;-77
2023/09/29 04:04:02;;;;;;;20.98;3.65;;;11.40;99.90;;;;;;5070089;28;20107;-77
2023/09/29 04:06:29;;;;;;;17.17;3.63;;;11.40;99.90;;;;;;5069959;28;20028;-77
2023/09/29 04:08:55;;;;;;;19.15;3.13;;;11.40;99.90;;;;;;5051677;28;20033;-78
2023/09/29 04:11:21;;;;;;;16.08;3.30;;;11.40;99.90;;;;;;5052136;28;20060;-77
2023/09/29 04:13:47;;;;;;;22.48;3.92;;;11.30;99.90;;;;;;5069599;28;20025;-77
2023/09/29 04:16:14;;;;;;;21.98;3.00;;;11.40;99.90;;;;;;5051936;28;20340;-77
2023/09/29 04:18:40;;;;;;;13.18;3.45;;;11.40;99.90;;;;;;5070388;28;20367;-78
2023/09/29 04:21:13;;;;;;;16.67;3.50;;;11.30;99.90;;;;;;5073903;28;20093;-77
2023/09/29 04:23:38;;;;;;;;;;;11.40;99.90;;;;;;5074042;28;20352;-78
2023/09/29 04:26:04;;;;;;;18.02;4.25;;;11.40;99.90;;;;;;5073469;28;19904;-78
2023/09/29 04:28:29;;;;;;;10.23;3.03;;;11.30;99.90;;;;;;5073952;28;20032;-78
2023/09/29 04:30:55;;;;;;;20.60;2.92;;;11.40;99.90;;;;;;5073740;28;20035;-79
2023/09/29 04:33:21;;;;;;;16.90;3.22;;;11.30;99.90;;;;;;5073865;28;20044;-78
2023/09/29 04:35:46;;;;;;;15.23;3.72;;;11.30;99.90;;;;;;5055434;28;20087;-79
2023/09/29 04:38:12;;;;;;;19.35;3.53;;;11.30;99.90;;;;;;5074129;28;20028;-78
2023/09/29 04:40:38;;;;;;;16.55;3.83;;;11.30;99.90;;;;;;5073832;28;20040;-79
2023/09/29 04:43:05;;;;;;;26.35;4.65;;;11.30;99.90;;;;;;5055317;28;20036;-78
2023/09/29 04:45:33;;;;;;;21.48;3.88;;;11.30;99.90;;;;;;5055697;28;20028;-78
2023/09/29 04:48:00;;;;;;;22.58;3.20;;;11.30;99.90;;;;;;5038154;28;20467;-78
2023/09/29 04:50:25;;;;;;;12.63;2.88;;;11.30;99.90;;;;;;5053228;28;20029;-78
2023/09/29 04:52:51;;;;;;;23.98;3.58;;;11.30;99.90;;;;;;5034864;28;20359;-78
2023/09/29 04:55:17;;;;;;;18.35;3.95;;;11.40;99.90;;;;;;5053724;28;20367;-78
2023/09/29 04:57:43;;;;;;;17.52;3.40;;;11.50;99.90;;;;;;5052948;28;20440;-79
2023/09/29 05:00:09;;;;;;;17.27;3.45;;;11.50;99.90;;;;;;5053389;28;20052;-76
2023/09/29 05:02:35;;;;;;;15.70;2.97;;;11.50;99.90;;;;;;5053066;28;20386;-77
2023/09/29 05:05:01;;;;;;;18.10;3.20;;;11.60;99.90;;;;;;5034818;28;20021;-77
2023/09/29 05:07:27;;;;;;;13.73;3.28;;;11.60;99.90;;;;;;5035258;28;20029;-77
2023/09/29 05:09:52;;;;;;;16.27;3.20;;;11.60;99.90;;;;;;5053099;28;20106;-78
2023/09/29 05:12:18;;;;;;;16.75;3.33;;;11.60;99.90;;;;;;5053217;28;20100;-78
2023/09/29 05:14:44;;;;;;;17.17;3.25;;;11.60;99.90;;;;;;5052204;28;20548;-79
2023/09/29 05:17:10;;;;;;;15.73;3.35;;;11.60;99.90;;;;;;5052767;28;20099;-78
2023/09/29 05:19:35;;;;;;;14.55;2.90;;;11.50;99.90;;;;;;5053174;28;20474;-78
2023/09/29 05:22:01;;;;;;;13.18;3.13;;;11.50;99.90;;;;;;5052558;28;20051;-79
2023/09/29 05:24:27;;;;;;;17.95;2.92;;;11.50;99.90;;;;;;5053094;28;20032;-78
2023/09/29 05:26:53;;;;;;;13.35;3.53;;;11.60;99.90;;;;;;5052268;28;20426;-78
2023/09/29 05:29:19;;;;;;;21.35;2.90;;;11.60;99.90;;;;;;5052519;28;20043;-78
2023/09/29 05:31:45;;;;;;;13.43;2.83;;;11.60;99.90;;;;;;5051799;28;20021;-78
2023/09/29 05:34:11;;;;;;;16.52;3.08;;;11.60;99.90;;;;;;5052260;28;20040;-78
2023/09/29 05:36:36;;;;;;;17.35;3.58;;;11.60;99.90;;;;;;5052625;28;20029;-78
2023/09/29 05:39:03;;;;;;;14.10;3.13;;;11.60;99.90;;;;;;5052254;28;20036;-78
2023/09/29 05:41:29;;;;;;;14.65;2.50;;;11.60;99.90;;;;;;5052325;28;20025;-78
2023/09/29 05:43:55;;;;;;;12.30;2.60;;;11.60;99.90;;;;;;5051997;28;20119;-78
2023/09/29 05:46:21;;;;;;;17.83;3.63;;;11.60;99.90;;;;;;5036761;28;20128;-78
2023/09/29 05:48:46;;;;;;;14.23;2.35;;;11.70;99.90;;;;;;5072061;28;20111;-78
2023/09/29 05:51:12;;;;;;;13.20;2.78;;;11.70;99.90;;;;;;5072079;28;20100;-78
2023/09/29 05:53:38;;;;;;;15.77;2.65;;;11.70;99.90;;;;;;5072201;28;20029;-78
2023/09/29 05:56:11;;;;;;;8.82;2.25;;;11.70;99.90;;;;;;5053717;28;20036;-78
2023/09/29 05:58:37;;;;;;;14.25;2.60;;;11.70;99.90;;;;;;5072201;28;20043;-79
2023/09/29 06:01:15;;;;;;;15.40;2.88;;;11.70;99.90;;;;;;5071599;28;20101;-79
2023/09/29 06:03:41;;;;;;;12.70;2.55;;;11.70;99.90;;;;;;5072202;28;20071;-78
2023/09/29 06:06:10;;;;;;;13.30;3.20;;;11.70;99.90;;;;;;5071345;28;20431;-79
2023/09/29 06:08:40;;;;;;;10.65;2.60;;;11.70;99.90;;;;;;5071576;28;20036;-78
2023/09/29 06:11:06;;;;;;;15.18;3.08;;;11.70;99.90;;;;;;5071228;28;20104;-79
2023/09/29 06:13:32;;;;;;;17.27;2.88;;;11.70;99.90;;;;;;5053706;28;20112;-79
2023/09/29 06:15:58;;;;;;;13.48;2.80;;;11.70;99.90;;;;;;5071058;28;20060;-77
2023/09/29 06:18:25;;;;;;;16.70;3.90;;;11.70;99.90;;;;;;5071434;28;20052;-75
2023/09/29 06:20:50;;;;;;;18.55;3.58;;;11.60;99.90;;;;;;5071238;28;20107;-75
2023/09/29 06:23:16;;;;;;;15.38;3.28;;;11.60;99.90;;;;;;5071458;28;20067;-77
2023/09/29 06:25:42;;;;;;;17.17;2.95;;;11.60;99.90;;;;;;5071463;28;20044;-77
2023/09/29 06:28:08;;;;;;;11.13;2.47;;;11.60;99.90;;;;;;5070989;28;20048;-77
2023/09/29 06:30:34;;;;;;;20.50;3.13;;;11.60;99.90;;;;;;5071707;28;20467;-78
2023/09/29 06:32:59;;;;;;;22.00;3.15;;;11.60;99.90;;;;;;5070682;28;20035;-77
2023/09/29 06:35:25;;;;;;;13.20;2.75;;;11.60;99.90;;;;;;5071147;28;20024;-77
2023/09/29 06:37:51;;;;;;;20.48;3.15;;;11.60;99.90;;;;;;5070586;28;20037;-78
2023/09/29 06:40:17;;;;;;;18.17;3.05;;;11.60;99.90;;;;;;5071420;28;20083;-78
2023/09/29 06:42:43;;;;;;;23.73;3.17;;;11.60;99.90;;;;;;5070296;28;20060;-77
2023/09/29 06:45:09;;;;;;;17.73;3.30;;;11.60;99.90;;;;;;5070522;28;20385;-77
2023/09/29 06:47:35;;;;;;;17.70;2.78;;;11.60;99.90;;;;;;5070809;28;20102;-77
2023/09/29 06:50:01;;;;;;;23.58;3.08;;;11.70;99.90;;;;;;5070099;28;20104;-77
2023/09/29 06:52:27;;;;;;;17.95;3.03;;;11.70;99.90;;;;;;5070714;28;20065;-77
2023/09/29 06:54:53;;;;;;;17.10;3.50;;;11.70;99.90;;;;;;5069986;28;20028;-78
2023/09/29 06:57:18;;;;;;;14.15;2.28;;;11.80;99.90;;;;;;5070322;28;20407;-77
2023/09/29 06:59:44;;;;;;;13.95;2.83;;;11.80;99.90;;;;;;5070514;28;20028;-78
2023/09/29 07:02:10;;;;;;;19.48;3.05;;;11.80;99.90;;;;;;5069886;28;20394;-77
2023/09/29 07:04:36;;;;;;;18.17;3.60;;;11.80;99.90;;;;;;5070319;28;20086;-78
2023/09/29 07:07:01;;;;;;;16.00;2.90;;;11.90;99.90;;;;;;5070208;28;20121;-78
2023/09/29 07:09:28;;;;;;;13.18;2.67;;;11.90;99.90;;;;;;5070801;28;20060;-77
2023/09/29 07:11:54;;;;;;;16.90;3.13;;;12.00;99.90;;;;;;5070162;28;20025;-78
2023/09/29 07:14:20;;;;;;;23.10;3.72;;;12.10;99.90;;;;;;5070930;28;20114;-77
2023/09/29 07:16:49;;;;;;;15.00;3.10;;;12.10;99.90;;;;;;5070004;28;20059;-78
2023/09/29 07:19:16;;;;;;;12.57;2.75;;;12.10;99.90;;;;;;5052125;28;20047;-77
2023/09/29 07:21:42;;;;;;;19.45;3.50;;;12.10;99.90;;;;;;5070291;28;20047;-77
2023/09/29 07:24:08;;;;;;;22.05;3.97;;;12.20;99.90;;;;;;5069301;28;20107;-77
2023/09/29 07:26:34;;;;;;;19.42;3.10;;;12.30;99.90;;;;;;5070524;28;20050;-77
2023/09/29 07:29:01;;;;;;;15.80;3.10;;;12.40;99.90;;;;;;5069745;28;20024;-78
2023/09/29 07:31:46;;;;;;;13.52;2.60;;;12.50;99.90;;;;;;5070417;28;20040;-78
2023/09/29 07:34:12;;;;;;;15.27;2.35;;;12.60;99.90;;;;;;5070035;28;20162;-78
2023/09/29 07:36:39;;;;;;;17.45;3.08;;;12.60;99.90;;;;;;5070238;28;20066;-78
2023/09/29 07:39:05;;;;;;;15.50;2.88;;;12.70;99.90;;;;;;5069718;28;20025;-78
2023/09/29 07:41:31;;;;;;;19.75;3.05;;;12.80;99.90;;;;;;5070641;28;20082;-78
2023/09/29 07:43:56;;;;;;;14.80;2.97;;;12.90;99.90;;;;;;5069516;28;20020;-78
2023/09/29 07:46:22;;;;;;;16.08;3.28;;;12.90;99.90;;;;;;5070092;28;20051;-78
2023/09/29 07:48:48;;;;;;;15.52;2.83;;;13.10;99.90;;;;;;5070194;28;20020;-77
2023/09/29 07:51:15;;;;;;;15.00;3.45;;;13.10;99.90;;;;;;5069901;28;20438;-77
2023/09/29 07:53:40;;;;;;;12.75;2.50;;;13.20;99.90;;;;;;5072198;28;20467;-78
2023/09/29 07:56:07;;;;;;;11.45;3.13;;;13.20;99.90;;;;;;5073720;28;20025;-78
2023/09/29 07:58:32;;;;;;;13.02;2.60;;;13.30;99.90;;;;;;5074502;28;20343;-78
2023/09/29 08:00:58;;;;;;;15.90;2.92;;;13.40;99.90;;;;;;5073677;28;20024;-78
2023/09/29 08:03:24;;;;;;;17.38;2.60;;;13.40;99.90;;;;;;5074098;28;20075;-79
2023/09/29 08:05:49;;;;;;;19.58;2.83;;;13.50;99.90;;;;;;5074635;28;20021;-77
2023/09/29 08:08:15;;;;;;;12.25;2.70;;;13.60;99.90;;;;;;5073593;28;20335;-78
2023/09/29 08:10:42;;;;;;;14.25;3.00;;;13.60;99.90;;;;;;5074165;28;20035;-78
2023/09/29 08:13:07;;;;;;;12.38;2.72;;;13.60;99.90;;;;;;5073549;28;20025;-79
2023/09/29 08:15:33;;;;;;;12.60;2.65;;;13.70;99.90;;;;;;5074747;28;20028;-79
2023/09/29 08:17:59;;;;;;;11.52;2.40;;;13.80;99.90;;;;;;5055699;28;20499;-79
2023/09/29 08:20:24;;;;;;;15.02;2.75;;;13.80;99.90;;;;;;5074132;28;20025;-78
2023/09/29 08:22:50;;;;;;;13.15;3.13;;;13.80;99.90;;;;;;5073942;28;20067;-78
2023/09/29 08:25:16;;;;;;;11.02;2.90;;;13.90;99.90;;;;;;5072907;28;20573;-78
2023/09/29 08:27:42;;;;;;;9.98;2.30;;;14.00;99.90;;;;;;5073502;28;20068;-77
2023/09/29 08:30:08;;;;;;;14.27;3.10;;;14.00;99.90;;;;;;5073154;28;20041;-78
2023/09/29 08:32:36;;;;;;;16.10;2.70;;;14.00;99.90;;;;;;5055562;28;20425;-78
2023/09/29 08:35:02;;;;;;;19.67;2.88;;;14.10;99.90;;;;;;5072999;28;20036;-78
2023/09/29 08:37:28;;;;;;;16.08;2.75;;;14.20;99.90;;;;;;5073503;28;20458;-78
2023/09/29 08:39:54;;;;;;;15.85;3.33;;;14.20;99.90;;;;;;5073266;28;20111;-79
2023/09/29 08:42:36;;;;;;;10.85;2.20;;;14.20;99.90;;;;;;5072796;28;20170;-77
2023/09/29 08:45:12;;;;;;;9.30;2.00;;;14.20;99.90;;;;;;5072655;28;20032;-77
2023/09/29 08:47:40;;;;;;;12.68;2.45;;;14.20;99.90;;;;;;5073509;28;20052;-77
2023/09/29 08:50:09;;;;;;;15.00;2.58;;;14.30;99.90;;;;;;5072334;28;20029;-77
2023/09/29 08:52:35;;;;;;;13.32;2.60;;;14.30;99.90;;;;;;5072852;28;20036;-77
2023/09/29 08:55:05;;;;;;;12.65;2.65;;;14.30;99.90;;;;;;5072412;28;20058;-76
2023/09/29 08:57:31;;;;;;;12.32;2.83;;;14.40;99.90;;;;;;5073239;28;20044;-77
2023/09/29 08:59:58;;;;;;;18.40;2.88;;;14.50;99.90;;;;;;5072508;28;20420;-79
2023/09/29 09:02:24;;;;;;;15.73;2.80;;;14.60;99.90;;;;;;5072839;28;20109;-77
2023/09/29 09:04:50;;;;;;;11.95;2.55;;;14.60;99.90;;;;;;5071781;28;20025;-77
2023/09/29 09:07:18;;;;;;;15.27;2.90;;;14.70;99.90;;;;;;5072186;28;20036;-78
2023/09/29 09:09:52;;;;;;;10.23;2.30;;;14.70;99.90;;;;;;5072835;28;20033;-78
2023/09/29 09:12:18;;;;;;;11.45;1.90;;;14.80;99.90;;;;;;5072303;28;20020;-78
2023/09/29 09:14:44;;;;;;;12.20;2.38;;;14.80;99.90;;;;;;5068225;28;20017;-79
2023/09/29 09:17:11;;;;;;;8.75;2.00;;;14.80;99.90;;;;;;5071639;28;20040;-78
2023/09/29 09:19:45;;;;;;;15.90;3.13;;;14.80;99.90;;;;;;5072375;28;20031;-78
2023/09/29 09:22:19;;;;;;;13.85;2.63;;;14.80;99.90;;;;;;5072604;28;20118;-79
2023/09/29 09:24:45;;;;;;;14.15;2.50;;;14.70;99.90;;;;;;5073373;28;20127;-78
2023/09/29 09:27:11;;;;;;;12.75;2.30;;;14.80;99.90;;;;;;5054428;28;20450;-78
2023/09/29 09:29:44;;;;;;;15.40;3.67;;;14.90;99.90;;;;;;5073158;28;20062;-78
2023/09/29 09:32:10;;;;;;;15.07;2.38;;;14.80;99.90;;;;;;5072030;28;20112;-78
2023/09/29 09:34:37;;;;;;;13.90;2.95;;;14.90;99.90;;;;;;5072654;28;20024;-77
2023/09/29 09:37:06;;;;;;;11.82;2.30;;;14.90;99.90;;;;;;5072263;28;20102;-78
2023/09/29 09:39:33;;;;;;;13.05;2.30;;;14.90;99.90;;;;;;5072654;28;20094;-77
2023/09/29 09:42:01;;;;;;;15.82;2.42;;;15.00;99.90;;;;;;5072145;28;20024;-77
2023/09/29 09:44:27;;;;;;;12.70;2.67;;;15.10;99.90;;;;;;5072580;28;20098;-77
2023/09/29 09:47:00;;;;;;;10.48;2.63;;;15.10;99.90;;;;;;5071806;28;20394;-77
2023/09/29 09:49:38;;;;;;;14.38;2.65;;;15.10;99.90;;;;;;5072379;28;20025;-77
2023/09/29 09:52:12;;;;;;;15.25;3.88;;;15.20;99.90;;;;;;5053673;28;20029;-78
2023/09/29 09:54:49;;;;;;;12.52;2.63;;;15.20;99.90;;;;;;5072253;28;20043;-78
2023/09/29 09:57:22;;;;;;;13.93;2.72;;;15.20;99.90;;;;;;5071516;28;20082;-77
2023/09/29 09:59:52;;;;;;;16.98;2.88;;;15.10;99.90;;;;;;5071842;28;20029;-77
2023/09/29 10:02:20;;;;;;;13.60;2.67;;;15.20;99.90;;;;;;5071572;28;20039;-77
2023/09/29 10:04:47;;;;;;;15.07;2.92;;;15.20;99.90;;;;;;5072643;28;20059;-77
2023/09/29 10:07:14;;;;;;;16.52;2.72;;;15.20;99.90;;;;;;5071756;28;20025;-77
2023/09/29 10:09:45;;;;;;;11.70;2.10;;;15.30;99.90;;;;;;5072220;28;20119;-77
2023/09/29 10:12:28;;;;;;;9.82;2.20;;;15.40;99.90;;;;;;5071238;28;20025;-77
2023/09/29 10:14:55;;;;;;;11.50;2.63;;;15.50;99.90;;;;;;5071788;28;20340;-77
2023/09/29 10:17:22;;;;;;;18.10;2.65;;;15.70;99.90;;;;;;5070295;28;20090;-77
2023/09/29 10:19:53;;;;;;;14.77;2.70;;;15.80;99.90;;;;;;5071938;28;20057;-78
2023/09/29 10:22:28;;;;;;;16.17;2.65;;;15.90;99.90;;;;;;5071333;28;20020;-76
2023/09/29 10:24:56;;;;;;;13.40;2.80;;;16.00;99.90;;;;;;5071712;28;20029;-77
2023/09/29 10:27:58;;;;;;;14.80;2.67;;;16.00;99.90;;;;;;5071085;28;20179;-77
2023/09/29 10:30:26;;;;;;;16.98;2.92;;;16.20;99.90;;;;;;5071147;28;20039;-77
2023/09/29 10:33:19;;;;;;;10.73;2.20;;;16.30;99.90;;;;;;5071468;28;20048;-77
2023/09/29 10:35:47;;;;;;;15.13;2.65;;;16.50;99.90;;;;;;5071822;28;20028;-77
2023/09/29 10:38:33;;;;;;;12.93;2.35;;;16.50;99.90;;;;;;5071088;28;20036;-78
2023/09/29 10:40:59;;;;;;;15.02;2.80;;;16.40;99.90;;;;;;5071470;28;20055;-77
2023/09/29 10:43:25;;;;;;;14.30;2.58;;;16.40;99.90;;;;;;5070897;28;20130;-77
2023/09/29 10:45:51;;;;;;;10.93;3.00;;;16.40;99.90;;;;;;5071043;28;20104;-77
2023/09/29 10:48:26;;;;;;;12.45;2.28;;;16.40;99.90;;;;;;5070458;28;20040;-77
2023/09/29 10:50:52;;;;;;;12.70;2.75;;;16.50;99.90;;;;;;5070959;28;20497;-77
2023/09/29 10:53:22;;;;;;;12.02;2.55;;;16.50;99.90;;;;;;5070514;28;20028;-78
2023/09/29 10:55:49;;;;;;;13.50;2.28;;;16.40;99.90;;;;;;5071031;28;20056;-78
2023/09/29 10:58:17;;;;;;;15.07;2.67;;;16.50;99.90;;;;;;5070122;28;20020;-77
2023/09/29 11:00:46;;;;;;;13.10;2.95;;;16.50;99.90;;;;;;5052975;28;20048;-77
2023/09/29 11:03:17;;;;;;;16.20;2.67;;;16.50;99.90;;;;;;5070294;28;20435;-78
2023/09/29 11:05:53;;;;;;;12.77;2.30;;;16.50;99.90;;;;;;5070148;28;20055;-78
2023/09/29 11:08:30;;;;;;;15.60;2.83;;;16.50;99.90;;;;;;5069280;28;20032;-78
2023/09/29 11:11:03;;;;;;;13.23;2.58;;;16.60;99.90;;;;;;5070946;28;20033;-77
2023/09/29 11:13:30;;;;;;;15.25;2.92;;;16.60;99.90;;;;;;5070525;28;20111;-77
2023/09/29 11:15:58;;;;;;;13.30;2.55;;;16.60;99.90;;;;;;5070949;28;20046;-78
2023/09/29 11:18:33;;;;;;;14.65;2.40;;;16.60;99.90;;;;;;5070240;28;20673;-77
2023/09/29 11:21:00;;;;;;;11.90;2.50;;;16.60;99.90;;;;;;5070699;28;20103;-78
2023/09/29 11:23:28;;;;;;;13.85;2.80;;;16.50;99.90;;;;;;5070066;28;20021;-78
2023/09/29 11:25:59;;;;;;;11.90;2.67;;;16.40;99.90;;;;;;5052270;28;20032;-77
2023/09/29 11:28:28;;;;;;;14.57;2.40;;;16.40;99.90;;;;;;5069490;28;20098;-77
2023/09/29 11:30:54;;;;;;;15.20;2.80;;;16.40;99.90;;;;;;5070733;28;20035;-78
2023/09/29 11:33:21;;;;;;;13.38;2.33;;;16.50;99.90;;;;;;5069770;28;20031;-78
2023/09/29 11:35:47;;;;;;;14.60;2.80;;;16.50;99.90;;;;;;5052283;28;20040;-77
2023/09/29 11:38:19;;;;;;;9.90;2.40;;;16.40;99.90;;;;;;5069980;28;20032;-77
2023/09/29 11:40:55;;;;;;;11.88;3.03;;;16.30;99.90;;;;;;5052249;28;20655;-78
2023/09/29 11:43:21;;;;;;;9.82;2.03;;;16.10;99.90;;;;;;5070009;28;20435;-77
2023/09/29 11:45:46;;;;;;;9.65;2.13;;;16.00;99.90;;;;;;5070311;28;20119;-78
2023/09/29 11:48:13;;;;;;;17.13;2.53;;;16.10;99.90;;;;;;5069783;28;20052;-78
2023/09/29 11:50:40;;;;;;;12.43;2.10;;;16.20;99.90;;;;;;5070101;28;20470;-78
2023/09/29 11:53:07;;;;;;;15.57;2.22;;;16.30;99.90;;;;;;5070003;28;20040;-79
2023/09/29 11:55:36;;;;;;;8.40;2.08;;;16.40;99.90;;;;;;5070015;28;20025;-78
2023/09/29 11:58:02;;;;;;;9.57;2.13;;;16.40;99.90;;;;;;5070300;28;20032;-78
2023/09/29 12:00:29;;;;;;;9.88;2.03;;;16.40;99.90;;;;;;5051606;28;20017;-78
2023/09/29 12:02:55;;;;;;;9.68;1.70;;;16.30;99.90;;;;;;5070064;28;20032;-78
2023/09/29 12:05:21;;;;;;;13.20;2.85;;;16.40;99.90;;;;;;5069876;28;20450;-77
2023/09/29 12:07:46;;;;;;;12.05;2.00;;;16.50;99.90;;;;;;5069694;28;20130;-77
2023/09/29 12:10:13;;;;;;;11.02;2.00;;;16.70;99.90;;;;;;5069554;28;20066;-77
2023/09/29 12:12:39;;;;;;;9.05;1.90;;;16.90;99.90;;;;;;5069530;28;20025;-77
2023/09/29 12:15:06;;;;;;;9.20;2.15;;;17.00;99.90;;;;;;5069574;28;20036;-77
2023/09/29 12:17:32;;;;;;;7.55;1.80;;;17.10;99.90;;;;;;5069423;28;20032;-77
2023/09/29 12:19:58;;;;;;;9.23;1.80;;;17.30;99.90;;;;;;5069892;28;20323;-77
2023/09/29 12:22:24;;;;;;;8.07;1.70;;;17.40;99.90;;;;;;5069268;28;20028;-77
2023/09/29 12:24:50;;;;;;;7.25;1.77;;;17.40;99.90;;;;;;5051466;28;20493;-78
2023/09/29 12:27:15;;;;;;;7.65;1.77;;;17.40;99.90;;;;;;5068871;28;20133;-78
2023/09/29 12:29:41;;;;;;;7.05;1.77;;;17.40;99.90;;;;;;5069843;28;20105;-77
2023/09/29 12:32:07;;;;;;;8.55;2.13;;;17.40;99.90;;;;;;5069432;28;20047;-77
2023/09/29 12:34:34;;;;;;;8.63;1.85;;;17.30;99.90;;;;;;5069833;28;20032;-77
2023/09/29 12:37:00;;;;;;;7.30;1.50;;;17.30;99.90;;;;;;5051614;28;20032;-77
2023/09/29 12:39:26;;;;;;;6.70;1.67;;;17.40;99.90;;;;;;5051797;28;20029;-77